createdAt,value
2022-12-15T00:00:23.845Z,247.70
2022-12-15T00:03:30.572Z,250.00
2022-12-15T00:06:19.550Z,256.50
2022-12-15T00:09:11.157Z,234.60
2022-12-15T00:12:00.385Z,251.50
2022-12-15T00:14:46.719Z,271.40
2022-12-15T00:17:33.254Z,264.10
2022-12-15T00:20:19.995Z,257.30
2022-12-15T00:23:09.061Z,257.10
2022-12-15T00:25:55.574Z,269.30
2022-12-15T00:28:41.627Z,276.90
2022-12-15T00:31:28.028Z,289.40
2022-12-15T00:34:14.442Z,291.60
2022-12-15T00:37:01.135Z,292.00
2022-12-15T00:39:28.959Z,265.10
2022-12-15T00:41:56.688Z,287.50
2022-12-15T00:44:25.049Z,301.40
2022-12-15T00:46:55.756Z,288.50
2022-12-15T00:49:44.360Z,305.30
2022-12-15T00:52:32.169Z,293.90
2022-12-15T00:55:19.016Z,294.70
2022-12-15T00:58:05.601Z,294.00
2022-12-15T01:00:52.594Z,272.10
2022-12-15T01:03:43.186Z,206.90
2022-12-15T01:06:34.250Z,195.00
2022-12-15T01:09:21.915Z,186.40
2022-12-15T01:12:08.235Z,188.00
2022-12-15T01:14:54.702Z,221.80
2022-12-15T01:17:40.956Z,246.70
2022-12-15T01:20:18.855Z,272.60
2022-12-15T01:22:54.297Z,268.30
2022-12-15T01:25:25.586Z,275.80
2022-12-15T01:27:55.249Z,274.30
2022-12-15T01:30:26.345Z,310.80
2022-12-15T01:32:56.465Z,315.10
2022-12-15T01:35:26.088Z,323.70
2022-12-15T01:37:53.821Z,339.60
2022-12-15T01:40:40.641Z,332.80
2022-12-15T01:43:21.073Z,333.90
2022-12-15T01:46:09.949Z,334.80
2022-12-15T01:49:00.791Z,326.20
2022-12-15T01:51:43.026Z,312.70
2022-12-15T01:54:20.149Z,299.50
2022-12-15T01:56:55.922Z,251.90
2022-12-15T01:59:32.890Z,227.30
2022-12-15T02:02:01.120Z,217.80
2022-12-15T02:04:29.168Z,211.30
2022-12-15T02:06:56.956Z,200.60
2022-12-15T02:09:26.816Z,204.10
2022-12-15T02:12:48.750Z,221.70
2022-12-15T02:16:25.655Z,189.10
2022-12-15T02:19:31.108Z,202.90
2022-12-15T02:22:25.980Z,189.40
2022-12-15T02:25:22.339Z,201.30
2022-12-15T02:28:04.852Z,210.00
2022-12-15T02:31:10.605Z,210.80
2022-12-15T02:33:46.903Z,199.70
2022-12-15T02:36:25.931Z,185.20
2022-12-15T02:38:53.733Z,178.60
2022-12-15T02:41:36.828Z,194.30
2022-12-15T02:44:16.260Z,183.80
2022-12-15T02:47:13.756Z,166.40
2022-12-15T02:50:06.833Z,159.90
2022-12-15T02:55:58.950Z,168.70
2022-12-15T02:59:11.318Z,161.50
2022-12-15T03:01:54.397Z,149.30
2022-12-15T03:04:23.009Z,168.80
2022-12-15T03:07:00.896Z,168.50
2022-12-15T03:09:31.898Z,163.90
2022-12-15T03:11:59.971Z,172.30
2022-12-15T03:14:28.233Z,167.00
2022-12-15T03:16:56.583Z,179.50
2022-12-15T03:19:24.558Z,178.00
2022-12-15T03:21:52.972Z,171.00
2022-12-15T03:24:20.784Z,162.10
2022-12-15T03:26:51.921Z,168.60
2022-12-15T03:29:20.020Z,171.70
2022-12-15T03:31:49.884Z,170.70
2022-12-15T03:34:18.351Z,177.00
2022-12-15T03:36:46.548Z,194.90
2022-12-15T03:39:14.444Z,182.30
2022-12-15T03:41:42.580Z,152.60
2022-12-15T03:44:10.402Z,177.60
2022-12-15T03:46:38.244Z,162.80
2022-12-15T03:49:06.295Z,154.80
2022-12-15T03:51:34.314Z,179.40
2022-12-15T03:54:02.095Z,174.60
2022-12-15T03:56:29.895Z,162.60
2022-12-15T03:58:57.856Z,174.70
2022-12-15T04:01:31.379Z,167.30
2022-12-15T04:04:01.360Z,157.60
2022-12-15T04:06:30.483Z,168.10
2022-12-15T04:08:58.333Z,162.00
2022-12-15T04:11:26.231Z,151.90
2022-12-15T04:13:54.154Z,158.60
2022-12-15T04:16:22.022Z,149.50
2022-12-15T04:19:13.026Z,170.80
2022-12-15T04:21:40.858Z,186.80
2022-12-15T04:24:27.368Z,170.40
2022-12-15T04:27:13.914Z,166.30
2022-12-15T04:30:00.387Z,166.80
2022-12-15T04:32:49.942Z,163.10
2022-12-15T04:35:36.474Z,175.80
2022-12-15T04:38:22.898Z,171.80
2022-12-15T04:41:09.539Z,177.40
2022-12-15T04:43:55.846Z,184.00
2022-12-15T04:46:42.532Z,186.90
2022-12-15T04:49:28.566Z,183.90
2022-12-15T04:52:16.543Z,223.60
2022-12-15T04:55:03.309Z,307.70
2022-12-15T04:57:49.528Z,361.30
2022-12-15T05:00:36.171Z,609.70
2022-12-15T05:03:27.362Z,460.00
2022-12-15T05:06:13.968Z,374.80
2022-12-15T05:09:00.477Z,360.30
2022-12-15T05:11:47.201Z,299.80
2022-12-15T05:14:33.590Z,247.30
2022-12-15T05:17:19.646Z,213.50
2022-12-15T05:20:05.927Z,211.20
2022-12-15T05:22:52.765Z,525.10
2022-12-15T05:25:39.043Z,210.40
2022-12-15T05:28:25.807Z,155.10
2022-12-15T05:31:12.040Z,165.70
2022-12-15T05:33:39.942Z,158.10
2022-12-15T05:36:08.289Z,165.70
2022-12-15T05:38:36.067Z,178.70
2022-12-15T05:41:03.955Z,161.00
2022-12-15T05:43:31.955Z,167.80
2022-12-15T05:46:04.598Z,153.50
2022-12-15T05:48:32.468Z,157.30
2022-12-15T05:51:08.317Z,161.10
2022-12-15T05:53:41.265Z,158.80
2022-12-15T05:56:14.410Z,148.80
2022-12-15T05:58:45.471Z,174.70
2022-12-15T06:01:17.373Z,176.00
2022-12-15T06:03:45.890Z,166.50
2022-12-15T06:06:14.062Z,174.80
2022-12-15T06:08:43.409Z,179.60
2022-12-15T06:11:17.159Z,164.30
2022-12-15T06:13:45.306Z,175.60
2022-12-15T06:16:19.779Z,182.40
2022-12-15T06:18:51.212Z,171.10
2022-12-15T06:21:23.710Z,163.90
2022-12-15T06:23:52.503Z,193.00
2022-12-15T06:26:25.720Z,165.30
2022-12-15T06:28:57.056Z,192.60
2022-12-15T06:31:26.818Z,192.70
2022-12-15T06:34:01.301Z,198.40
2022-12-15T06:36:31.043Z,191.50
2022-12-15T06:39:01.036Z,196.70
2022-12-15T06:41:32.303Z,191.50
2022-12-15T06:44:01.073Z,187.40
2022-12-15T06:46:31.573Z,194.70
2022-12-15T06:48:59.764Z,181.40
2022-12-15T06:51:28.111Z,192.30
2022-12-15T06:53:56.455Z,197.20
2022-12-15T06:56:34.819Z,201.80
2022-12-15T06:59:05.183Z,215.80
2022-12-15T07:01:33.775Z,194.90
2022-12-15T07:04:03.215Z,218.60
2022-12-15T07:06:36.895Z,215.90
2022-12-15T07:09:13.689Z,230.70
2022-12-15T07:11:41.683Z,268.20
2022-12-15T07:14:10.263Z,289.80
2022-12-15T07:16:38.225Z,323.20
2022-12-15T07:19:06.207Z,279.30
2022-12-15T07:21:34.187Z,264.50
2022-12-15T07:24:02.754Z,229.90
2022-12-15T07:26:31.025Z,236.20
2022-12-15T07:28:58.822Z,225.90
2022-12-15T07:31:27.210Z,221.50
2022-12-15T07:33:55.213Z,222.50
2022-12-15T07:36:23.141Z,238.60
2022-12-15T07:38:51.888Z,245.80
2022-12-15T07:41:20.486Z,240.00
2022-12-15T07:43:48.778Z,229.60
2022-12-15T07:46:17.829Z,269.20
2022-12-15T07:48:50.186Z,252.00
2022-12-15T07:51:20.864Z,240.40
2022-12-15T07:53:50.842Z,247.60
2022-12-15T07:56:20.089Z,233.20
2022-12-15T07:58:48.489Z,229.30
2022-12-15T08:01:16.691Z,241.90
2022-12-15T08:03:45.875Z,236.40
2022-12-15T08:06:15.277Z,225.30
2022-12-15T08:08:44.938Z,220.80
2022-12-15T08:11:21.750Z,220.60
2022-12-15T08:14:02.710Z,215.30
2022-12-15T08:16:32.078Z,198.70
2022-12-15T08:19:00.072Z,202.50
2022-12-15T08:21:27.895Z,207.50
2022-12-15T08:23:55.748Z,217.30
2022-12-15T08:26:28.384Z,227.30
2022-12-15T08:29:32.132Z,214.20
2022-12-15T08:31:51.979Z,201.60
2022-12-15T08:34:20.683Z,230.90
2022-12-15T08:36:48.512Z,217.80
2022-12-15T08:39:16.575Z,215.70
2022-12-15T08:41:44.769Z,211.20
2022-12-15T08:44:12.697Z,206.70
2022-12-15T08:46:40.419Z,206.80
2022-12-15T08:49:08.784Z,217.50
2022-12-15T08:51:36.658Z,218.10
2022-12-15T08:54:04.614Z,218.90
2022-12-15T08:56:32.852Z,199.60
2022-12-15T08:59:02.655Z,207.70
2022-12-15T09:01:32.649Z,199.70
2022-12-15T09:04:01.501Z,206.00
2022-12-15T09:06:32.607Z,194.90
2022-12-15T09:09:07.342Z,219.20
2022-12-15T09:11:35.277Z,212.70
2022-12-15T09:14:03.635Z,199.60
2022-12-15T09:16:31.677Z,193.60
2022-12-15T09:19:00.321Z,205.30
2022-12-15T09:21:30.406Z,207.00
2022-12-15T09:24:01.902Z,210.20
2022-12-15T09:26:32.791Z,200.00
2022-12-15T09:29:02.133Z,203.80
2022-12-15T09:31:34.067Z,214.20
2022-12-15T09:34:02.388Z,205.10
2022-12-15T09:36:32.771Z,209.30
2022-12-15T09:39:02.731Z,203.80
2022-12-15T09:41:33.373Z,206.10
2022-12-15T09:44:13.972Z,186.50
2022-12-15T09:47:29.889Z,187.60
2022-12-15T09:50:04.907Z,184.50
2022-12-15T09:52:48.721Z,197.90
2022-12-15T09:55:23.845Z,206.70
2022-12-15T09:58:35.539Z,204.20
2022-12-15T10:01:30.994Z,186.10
2022-12-15T10:04:38.167Z,190.80
2022-12-15T10:07:32.205Z,192.00
2022-12-15T10:10:01.589Z,192.20
2022-12-15T10:12:33.243Z,197.40
2022-12-15T10:15:21.063Z,190.00
2022-12-15T10:18:21.698Z,183.70
2022-12-15T10:20:53.267Z,185.60
2022-12-15T10:23:21.190Z,186.40
2022-12-15T10:26:01.528Z,194.00
2022-12-15T10:29:02.159Z,185.60
2022-12-15T10:31:54.755Z,189.10
2022-12-15T10:34:31.392Z,181.00
2022-12-15T10:36:59.984Z,177.20
2022-12-15T10:39:46.010Z,182.70
2022-12-15T10:42:25.287Z,185.30
2022-12-15T10:44:58.572Z,181.00
2022-12-15T10:47:32.168Z,169.50
2022-12-15T10:53:55.310Z,158.80
2022-12-15T10:56:33.165Z,162.80
2022-12-15T10:59:35.396Z,179.10
2022-12-15T11:02:24.435Z,157.20
2022-12-15T11:05:16.828Z,155.30
2022-12-15T11:07:55.388Z,147.70
2022-12-15T11:10:51.913Z,144.70
2022-12-15T11:13:22.970Z,140.40
2022-12-15T11:15:53.363Z,141.70
2022-12-15T11:18:32.041Z,133.80
2022-12-15T11:21:11.365Z,116.30
2022-12-15T11:24:10.091Z,121.00
2022-12-15T11:27:24.922Z,100.80
2022-12-15T11:30:19.176Z,104.30
2022-12-15T11:32:57.080Z,97.40
2022-12-15T11:36:18.923Z,97.90
2022-12-15T11:39:43.032Z,85.70
2022-12-15T11:42:46.160Z,82.20
2022-12-15T11:45:48.833Z,79.70
2022-12-15T11:48:26.685Z,85.20
2022-12-15T11:51:13.433Z,86.60
2022-12-15T11:53:49.421Z,79.30
2022-12-15T11:56:43.064Z,91.20
2022-12-15T11:59:38.578Z,100.40
2022-12-15T12:02:39.846Z,91.80
2022-12-15T12:05:32.302Z,99.30
2022-12-15T12:08:15.159Z,94.60
2022-12-15T12:11:07.733Z,95.40
2022-12-15T12:14:08.047Z,85.90
2022-12-15T12:19:33.635Z,76.30
2022-12-15T12:22:14.124Z,67.70
2022-12-15T12:24:48.915Z,62.70
2022-12-15T12:27:53.156Z,62.80
2022-12-15T12:30:26.137Z,67.00
2022-12-15T12:33:04.316Z,60.10
2022-12-15T12:35:53.214Z,64.80
2022-12-15T12:38:36.637Z,67.60
2022-12-15T12:41:12.232Z,62.80
2022-12-15T12:43:51.602Z,66.10
2022-12-15T12:46:33.467Z,64.10
2022-12-15T12:49:44.004Z,65.00
2022-12-15T12:52:22.769Z,67.00
2022-12-15T12:55:35.529Z,67.10
2022-12-15T12:58:03.574Z,66.70
2022-12-15T13:00:32.606Z,63.10
2022-12-15T13:03:30.436Z,73.20
2022-12-15T13:05:58.606Z,66.10
2022-12-15T13:08:50.998Z,71.30
2022-12-15T13:11:47.258Z,71.50
2022-12-15T13:14:26.409Z,62.10
2022-12-15T13:17:24.905Z,64.60
2022-12-15T13:20:01.409Z,60.60
2022-12-15T13:22:41.441Z,66.80
2022-12-15T13:25:40.633Z,69.70
2022-12-15T13:28:30.491Z,70.10
2022-12-15T13:31:20.196Z,64.10
2022-12-15T13:33:51.497Z,66.30
2022-12-15T13:36:40.537Z,66.00
2022-12-15T13:39:17.410Z,64.40
2022-12-15T13:44:51.957Z,59.00
2022-12-15T13:47:26.350Z,72.40
2022-12-15T13:50:18.378Z,71.30
2022-12-15T13:53:17.766Z,67.10
2022-12-15T13:55:51.672Z,64.00
2022-12-15T13:58:20.605Z,63.40
2022-12-15T14:00:57.302Z,61.90
2022-12-15T14:03:25.869Z,67.00
2022-12-15T14:05:59.488Z,64.80
2022-12-15T14:08:29.860Z,67.70
2022-12-15T14:11:06.930Z,64.50
2022-12-15T14:13:46.922Z,63.80
2022-12-15T14:16:22.198Z,69.40
2022-12-15T14:19:19.374Z,68.40
2022-12-15T14:21:58.945Z,68.50
2022-12-15T14:24:41.134Z,63.90
2022-12-15T14:27:09.270Z,68.80
2022-12-15T14:29:37.082Z,71.60
2022-12-15T14:32:05.598Z,63.40
2022-12-15T14:34:37.179Z,65.00
2022-12-15T14:37:10.843Z,66.70
2022-12-15T14:39:46.235Z,71.40
2022-12-15T14:42:21.732Z,64.90
2022-12-15T14:44:51.323Z,68.20
2022-12-15T14:47:34.932Z,70.70
2022-12-15T14:50:04.600Z,70.30
2022-12-15T14:52:44.043Z,72.50
2022-12-15T14:55:21.117Z,66.10
2022-12-15T14:57:52.532Z,68.60
2022-12-15T15:00:25.747Z,66.80
2022-12-15T15:03:04.067Z,168.00
2022-12-15T15:03:19.782Z,70.40
2022-12-15T15:05:54.204Z,60.80
2022-12-15T15:08:35.701Z,69.30
2022-12-15T15:11:30.511Z,67.10
2022-12-15T15:14:10.796Z,61.70
2022-12-15T15:16:38.634Z,70.70
2022-12-15T15:19:06.959Z,62.50
2022-12-15T15:21:39.094Z,69.00
2022-12-15T15:24:10.795Z,78.20
2022-12-15T15:26:40.100Z,67.10
2022-12-15T15:29:35.991Z,73.70
2022-12-15T15:32:18.896Z,72.20
2022-12-15T15:37:23.462Z,72.00
2022-12-15T15:39:55.238Z,71.90
2022-12-15T15:42:26.526Z,75.70
2022-12-15T15:44:58.556Z,72.10
2022-12-15T15:47:27.191Z,85.10
2022-12-15T15:49:58.536Z,85.00
2022-12-15T15:52:28.673Z,121.60
2022-12-15T15:54:56.647Z,84.80
2022-12-15T15:57:24.597Z,76.90
2022-12-15T15:59:53.159Z,81.30
2022-12-15T16:02:21.146Z,76.00
2022-12-15T16:04:49.191Z,81.00
2022-12-15T16:07:24.751Z,76.70
2022-12-15T16:09:53.805Z,80.80
2022-12-15T16:12:45.269Z,96.90
2022-12-15T16:15:20.124Z,92.50
2022-12-15T16:17:48.132Z,97.10
2022-12-15T16:20:18.434Z,97.60
2022-12-15T16:22:51.281Z,86.30
2022-12-15T16:28:24.950Z,102.00
2022-12-15T16:30:53.035Z,110.10
2022-12-15T16:33:21.420Z,106.40
2022-12-15T16:35:50.542Z,96.20
2022-12-15T16:38:32.164Z,88.90
2022-12-15T16:41:08.255Z,80.60
2022-12-15T16:43:39.179Z,81.30
2022-12-15T16:46:14.694Z,87.70
2022-12-15T16:48:43.369Z,89.70
2022-12-15T16:51:35.221Z,86.40
2022-12-15T16:54:03.234Z,92.70
2022-12-15T16:56:31.161Z,97.50
2022-12-15T16:59:30.999Z,93.20
2022-12-15T17:01:47.734Z,106.30
2022-12-15T17:04:16.726Z,94.30
2022-12-15T17:06:44.927Z,94.30
2022-12-15T17:09:22.436Z,105.20
2022-12-15T17:11:51.955Z,111.50
2022-12-15T17:14:19.741Z,96.90
2022-12-15T17:16:47.678Z,107.00
2022-12-15T17:19:20.888Z,103.10
2022-12-15T17:21:53.235Z,158.40
2022-12-15T17:24:24.480Z,232.80
2022-12-15T17:26:55.976Z,322.60
2022-12-15T17:29:26.981Z,289.30
2022-12-15T17:31:54.868Z,232.90
2022-12-15T17:34:31.003Z,267.80
2022-12-15T17:37:02.252Z,234.00
2022-12-15T17:39:33.915Z,211.00
2022-12-15T17:42:02.929Z,229.30
2022-12-15T17:44:37.509Z,234.60
2022-12-15T17:47:08.714Z,257.70
2022-12-15T17:49:38.360Z,306.60
2022-12-15T17:52:30.296Z,286.00
2022-12-15T17:54:58.607Z,283.40
2022-12-15T17:57:26.779Z,292.30
2022-12-15T17:59:54.688Z,267.80
2022-12-15T18:02:22.757Z,298.00
2022-12-15T18:04:50.896Z,335.80
2022-12-15T18:07:22.209Z,392.00
2022-12-15T18:09:51.443Z,389.70
2022-12-15T18:12:25.554Z,344.90
2022-12-15T18:14:54.847Z,355.70
2022-12-15T18:17:23.814Z,350.10
2022-12-15T18:19:51.630Z,329.00
2022-12-15T18:22:24.152Z,387.90
2022-12-15T18:24:53.812Z,393.50
2022-12-15T18:27:29.386Z,412.30
2022-12-15T18:29:57.206Z,392.30
2022-12-15T18:32:27.076Z,372.30
2022-12-15T18:34:55.327Z,430.10
2022-12-15T18:37:28.210Z,468.10
2022-12-15T18:39:59.522Z,387.90
2022-12-15T18:42:32.026Z,344.80
2022-12-15T18:45:00.627Z,332.60
2022-12-15T18:47:28.502Z,291.40
2022-12-15T18:49:56.351Z,336.90
2022-12-15T18:52:27.592Z,334.50
2022-12-15T18:54:57.878Z,373.10
2022-12-15T18:57:35.888Z,367.50
2022-12-15T19:00:24.501Z,430.00
2022-12-15T19:02:54.399Z,617.70
2022-12-15T19:05:43.928Z,571.40
2022-12-15T19:08:20.238Z,410.10
2022-12-15T19:10:59.983Z,470.50
2022-12-15T19:13:36.289Z,603.10
2022-12-15T19:16:07.120Z,715.20
2022-12-15T19:18:53.365Z,603.80
2022-12-15T19:21:47.594Z,600.80
2022-12-15T19:24:59.942Z,580.80
2022-12-15T19:27:27.816Z,566.90
2022-12-15T19:29:55.863Z,578.20
2022-12-15T19:32:24.142Z,551.60
2022-12-15T19:34:52.211Z,474.40
2022-12-15T19:37:26.757Z,505.80
2022-12-15T19:39:56.463Z,544.60
2022-12-15T19:42:31.176Z,518.90
2022-12-15T19:45:01.522Z,528.20
2022-12-15T19:47:29.948Z,507.90
2022-12-15T19:49:57.751Z,497.10
2022-12-15T19:52:26.576Z,497.90
2022-12-15T19:54:54.558Z,528.00
2022-12-15T19:57:22.461Z,708.90
2022-12-15T19:59:50.286Z,940.10
2022-12-15T20:02:20.454Z,863.70
2022-12-15T20:04:48.785Z,834.80
2022-12-15T20:07:29.757Z,796.30
2022-12-15T20:09:58.218Z,805.40
2022-12-15T20:12:26.108Z,882.50
2022-12-15T20:14:53.871Z,882.40
2022-12-15T20:17:21.697Z,741.50
2022-12-15T20:19:49.451Z,749.50
2022-12-15T20:22:19.222Z,695.30
2022-12-15T20:24:47.424Z,773.00
2022-12-15T20:27:19.202Z,815.00
2022-12-15T20:29:47.116Z,817.80
2022-12-15T20:32:19.571Z,804.50
2022-12-15T20:34:47.902Z,741.80
2022-12-15T20:37:26.977Z,709.40
2022-12-15T20:39:57.616Z,744.80
2022-12-15T20:42:25.705Z,714.20
2022-12-15T20:44:54.070Z,716.70
2022-12-15T20:47:25.633Z,568.10
2022-12-15T20:49:55.037Z,623.90
2022-12-15T20:52:26.384Z,722.30
2022-12-15T20:54:54.916Z,649.50
2022-12-15T20:57:22.727Z,676.80
2022-12-15T20:59:50.635Z,599.40
2022-12-15T21:02:22.514Z,606.90
2022-12-15T21:04:51.353Z,613.20
2022-12-15T21:07:19.906Z,633.10
2022-12-15T21:09:47.820Z,722.80
2022-12-15T21:12:22.800Z,617.90
2022-12-15T21:14:51.103Z,605.20
2022-12-15T21:17:22.269Z,635.00
2022-12-15T21:19:50.213Z,649.10
2022-12-15T21:22:24.177Z,630.30
2022-12-15T21:24:54.740Z,522.80
2022-12-15T21:27:22.966Z,480.20
2022-12-15T21:29:52.844Z,469.10
2022-12-15T21:32:21.113Z,391.80
2022-12-15T21:34:49.912Z,386.90
2022-12-15T21:37:31.638Z,517.00
2022-12-15T21:39:59.632Z,518.10
2022-12-15T21:42:27.452Z,534.10
2022-12-15T21:44:55.276Z,499.20
2022-12-15T21:47:47.825Z,470.80
2022-12-15T21:50:17.494Z,523.60
2022-12-15T21:52:46.178Z,589.50
2022-12-15T21:55:27.080Z,674.30
2022-12-15T21:57:55.685Z,707.40
2022-12-15T22:00:25.237Z,624.30
2022-12-15T22:02:53.868Z,533.10
2022-12-15T22:05:30.263Z,470.10
2022-12-15T22:08:00.660Z,455.20
2022-12-15T22:10:28.540Z,488.10
2022-12-15T22:12:59.830Z,483.00
2022-12-15T22:15:28.677Z,476.40
2022-12-15T22:17:56.545Z,459.10
2022-12-15T22:20:25.191Z,436.60
2022-12-15T22:22:52.977Z,370.90
2022-12-15T22:25:25.873Z,398.80
2022-12-15T22:27:54.982Z,418.40
2022-12-15T22:30:26.961Z,410.00
2022-12-15T22:32:54.829Z,431.90
2022-12-15T22:35:26.004Z,414.60
2022-12-15T22:37:54.017Z,356.90
2022-12-15T22:40:23.881Z,316.00
2022-12-15T22:42:55.701Z,295.80
2022-12-15T22:45:24.206Z,293.20
2022-12-15T22:47:53.182Z,310.90
2022-12-15T22:50:25.950Z,290.20
2022-12-15T22:52:54.946Z,309.40
2022-12-15T22:55:24.306Z,296.70
2022-12-15T22:57:59.985Z,302.80
2022-12-15T23:00:27.803Z,350.80
2022-12-15T23:05:26.054Z,325.20
2022-12-15T23:07:54.197Z,309.20
2022-12-15T23:10:41.203Z,266.60
2022-12-15T23:13:08.943Z,419.60
2022-12-15T23:15:55.285Z,397.70
2022-12-15T23:18:23.135Z,365.60
2022-12-15T23:20:51.714Z,340.90
2022-12-15T23:23:19.988Z,364.50
2022-12-15T23:25:47.728Z,462.10
2022-12-15T23:28:15.543Z,468.00
2022-12-15T23:30:49.713Z,437.60
2022-12-15T23:33:18.493Z,498.50
2022-12-15T23:35:47.034Z,615.60
2022-12-15T23:38:14.934Z,566.20
2022-12-15T23:40:52.539Z,513.90
2022-12-15T23:43:22.473Z,425.40
2022-12-15T23:46:03.056Z,335.70
2022-12-15T23:48:37.995Z,320.30
2022-12-15T23:51:17.718Z,322.00
2022-12-15T23:53:47.693Z,340.10
2022-12-15T23:56:19.148Z,306.60
2022-12-15T23:58:49.486Z,308.60
